Debra Lee — WDF4397 — position and weather

sailwx.info

Track history (hours):
 
Tides and Currents Weather Stations Pressure Air Temp Water Temp Dewpoint Dewpoint Depression Visibility Wind Speed Wind Dir Waves Ship Positions

Debra Lee

Owner: Crystal Gayle, Inc., Theodore, AL. More information available from US FCC via Universal Licensing System and Coast Guard Vessel Documentation Center.

Last reported at 2017-Sep-25 16:31 UTC. Time now 2017-Oct-17 20:46 UTC.
Position N 26°12' W 080°01'.
Warning: this ship's position is 22 days out of date.

Length 25 m.

Type: Fishing. MMSI: 367451430.

Date/timePositionNaut miles runAvg speedWind from/ knotsBaromVisibWave heightAir tempDewpointWater temp
2017-Sep-25 16:31N 26°12' W 080°01'1 6.8
2017-Sep-25 16:25N 26°11' W 080°01'3 6.7
2017-Sep-25 15:56N 26°08' W 080°01'3 6.5
2017-Sep-25 15:25N 26°05' W 080°01'2 4.2
2017-Sep-25 15:00N 26°03' W 080°01'1 2.2
2017-Sep-25 14:29N 26°04' W 080°02'3 6.1
2017-Sep-25 14:00N 26°02' W 080°02'4 7.3
2017-Sep-25 13:30N 25°58' W 080°03'4 8.5
2017-Sep-25 13:00N 25°54' W 080°03'4 8.6
2017-Sep-25 12:30N 25°50' W 080°02'4 8.2
2017-Sep-25 12:00N 25°46' W 080°02'4 8.5
2017-Sep-25 11:30N 25°41' W 080°02'5 8.6
2017-Sep-25 10:52N 25°36' W 080°02'  
Track history (hours):
 
Tides and Currents Weather Stations Pressure Air Temp Water Temp Dewpoint Dewpoint Depression Visibility Wind Speed Wind Dir Waves Ship Positions

Debra Lee

Owner: Crystal Gayle, Inc., Theodore, AL. More information available from US FCC via Universal Licensing System and Coast Guard Vessel Documentation Center.

Last reported at 2017-Sep-25 16:31 UTC. Time now 2017-Oct-17 20:46 UTC.
Position N 26°12' W 080°01'.
Warning: this ship's position is 22 days out of date.

Length 25 m.

Type: Fishing. MMSI: 367451430.

Date/timePositionNaut miles runAvg speedWind from/ knotsBaromVisibWave heightAir tempDewpointWater temp
2017-Sep-25 16:31N 26°12' W 080°01'1 6.8
2017-Sep-25 16:25N 26°11' W 080°01'3 6.7
2017-Sep-25 15:56N 26°08' W 080°01'3 6.5
2017-Sep-25 15:25N 26°05' W 080°01'2 4.2
2017-Sep-25 15:00N 26°03' W 080°01'1 2.2
2017-Sep-25 14:29N 26°04' W 080°02'3 6.1
2017-Sep-25 14:00N 26°02' W 080°02'4 7.3
2017-Sep-25 13:30N 25°58' W 080°03'4 8.5
2017-Sep-25 13:00N 25°54' W 080°03'4 8.6
2017-Sep-25 12:30N 25°50' W 080°02'4 8.2
2017-Sep-25 12:00N 25°46' W 080°02'4 8.5
2017-Sep-25 11:30N 25°41' W 080°02'5 8.6
2017-Sep-25 10:52N 25°36' W 080°02'  

Dump ship's entire track history